Details From SCTO - Victoria
To SCIE - Carriel Sur Intl
Flight Number -
Tags generated
Created
Modified
Stats Distance 97 nm / 179 km
Max Altitude 200 ft / 61 m
Waypoints 3
Social Downloads 1
Likes 0
Share VATSIM

Download

Looking for another format? Having issues loading an existing format? Contact us
Advertisement - Login to hide

Notes

Basic altitude profile: - Ascent Rate: 500ft/min - Ascent Speed: 90kts - Cruise Altitude: 8000ft - Cruise Speed: 160kts - Descent Rate: 500ft/min - Descent Speed: 90kts Options: - Use NATs: no - Use PACOTS: no - Use low airways: no - Use high airways: yes

Route

SCTO CAR SCIE

ID Type Via Altitude Latitude Longitude Leg Dist Tot Dist Heading (true) Name
O SCTO APT - 0 ft / 0 m -38.24556˚ -72.34861˚ - 0 nm - Victoria
CAR VOR - 200 ft / 61 m -36.75549˚ -73.05313˚ 95 nm 95 nm 339° / 340° CONCEPCION VOR-DME
O SCIE APT - 0 ft / 0 m -36.77265˚ -73.06311˚ 1 nm 96 nm 205° / 205° Carriel Sur Intl

Altitude Profile

Advertisement - Login to hide

SCTO

Details ICAO SCTO
Name Victoria
Region Chile
Timezone America/Santiago (UTC-3.0)
Stats Elevation 1,147 ft / 350 m (AMSL)
Location -38.245556° -72.348612°
Runways 1
Magnetic Variation 5.996° E

METAR

Not found

TAF

Not found

Departure Runways

ID Width Length Bearing (true) Bearing (mag) Surface Threshold Offset Overrun Length
01 59 ft / 18 m 3,481 ft / 1,061 m 18.00° 12.00° Asphalt 0 ft / 0 m 0 ft / 0 m
19 59 ft / 18 m 3,481 ft / 1,061 m 198.00° 192.00° Asphalt 0 ft / 0 m 0 ft / 0 m

SCIE

Details ICAO SCIE (CCP)
Name Carriel Sur Intl
Region Chile
Timezone America/Santiago (UTC-3.0)
Stats Elevation 26 ft / 8 m (AMSL)
Location -36.772653° -73.063110°
Runways 1
Magnetic Variation 5.774° E

METAR

SCIE 172100Z 23014KT CAVOK 20/09 Q1015

Decode

TAF

TAF TAF SCIE 171610Z 1718/1818 240LVA1233 171800 GG EGZZMSAM KWBCYZYX 171800 SLLPYMYX SABO SLLP 171800 METAR SLLP 171800Z 08009KT 040V100 9999 SCT023 FEW025CB BKN200 19/M02 Q1035

Decode

Destination Runways

ID Width Length Bearing (true) Bearing (mag) Surface Threshold Offset Overrun Length
02 148 ft / 45 m 7,553 ft / 2,302 m 24.99° 19.22° Asphalt 0 ft / 0 m 0 ft / 0 m
20 148 ft / 45 m 7,553 ft / 2,302 m 204.98° 199.21° Asphalt 0 ft / 0 m 0 ft / 0 m

Approach Navaids

Runway Type Ident Frequency Range Bearing (true) Bearing (mag) Slope Elevation
02 Localiser ICEP 109.90 MHz 18 nm / 33 km 17.95° 12.18° - 25 ft / 8 m (AMSL)
02 Glidescope ICEP 109.90 MHz 10 nm / 19 km 18.00° 12.23° 3.00° 25 ft / 8 m (AMSL)
02 DME ICEP 109.90 MHz 18 nm / 33 km - - - 25 ft / 8 m (AMSL)

Popular Alternatives